Time;durP1;ratioP1;P1;durP2;ratioP2;P2;SDS_P1;SDS_P2;PMS_P1;PMS_P2;Temp;Humidity;BMP_temperature;BMP_pressure;BME280_temperature;BME280_humidity;BME280_pressure;Samples;Min_cycle;Max_cycle;Signal;HPM_P1;HPM_P2
2023/10/22 00:01:25;;;;;;;2.80;0.70;;;;;;;14.48;66.37;99643.13;5077265;28;20045;-72
2023/10/22 00:03:53;;;;;;;1.77;0.47;;;;;;;14.55;66.56;99644.44;5078698;28;20044;-72
2023/10/22 00:06:22;;;;;;;4.95;0.70;;;;;;;14.52;66.53;99645.00;5072306;28;20071;-73
2023/10/22 00:08:50;;;;;;;1.92;0.90;;;;;;;14.51;66.36;99654.19;5077843;28;20124;-73
2023/10/22 00:11:17;;;;;;;4.47;0.88;;;;;;;14.49;66.44;99652.84;5077875;28;20068;-73
2023/10/22 00:13:45;;;;;;;3.22;0.82;;;;;;;14.50;66.49;99659.88;5077608;28;20045;-73
2023/10/22 00:16:13;;;;;;;1.85;0.90;;;;;;;14.50;66.52;99660.69;5075729;28;20086;-72
2023/10/22 00:18:41;;;;;;;2.53;0.80;;;;;;;14.48;66.49;99665.56;5076173;28;20052;-72
2023/10/22 00:21:09;;;;;;;1.85;0.73;;;;;;;14.50;66.63;99662.59;5077865;28;20482;-72
2023/10/22 00:23:38;;;;;;;1.88;0.50;;;;;;;14.49;66.81;99674.50;5081751;28;20044;-73
2023/10/22 00:26:06;;;;;;;3.92;0.80;;;;;;;14.49;66.60;99669.06;5080511;28;20119;-73
2023/10/22 00:28:34;;;;;;;4.68;1.45;;;;;;;14.49;66.67;99680.69;5077858;28;20048;-72
2023/10/22 00:31:02;;;;;;;4.07;1.00;;;;;;;14.49;66.55;99679.91;5087334;28;20448;-72
2023/10/22 00:33:30;;;;;;;1.85;0.70;;;;;;;14.50;66.69;99686.91;5081301;28;20037;-72
2023/10/22 00:35:59;;;;;;;3.28;0.70;;;;;;;14.57;66.24;99695.53;5082364;28;20124;-72
2023/10/22 00:38:27;;;;;;;2.92;1.13;;;;;;;14.52;66.54;99690.97;5082318;28;20056;-72
2023/10/22 00:40:56;;;;;;;2.55;1.05;;;;;;;14.51;66.85;99705.56;5082186;28;20055;-73
2023/10/22 00:43:24;;;;;;;4.03;0.70;;;;;;;14.50;66.70;99713.94;5080010;28;20444;-72
2023/10/22 00:45:53;;;;;;;2.45;1.60;;;;;;;14.50;66.56;99712.06;5079760;28;20044;-72
2023/10/22 00:48:22;;;;;;;1.98;0.90;;;;;;;14.45;66.60;99700.44;5079654;28;20078;-72
2023/10/22 00:50:50;;;;;;;1.77;0.73;;;;;;;14.47;66.67;99714.50;5080979;28;20497;-73
2023/10/22 00:53:18;;;;;;;1.73;0.88;;;;;;;14.45;66.79;99716.66;5076451;28;20056;-72
2023/10/22 00:55:48;;;;;;;3.28;0.85;;;;;;;14.50;66.91;99730.19;5080170;28;20044;-72
2023/10/22 00:58:21;;;;;;;1.65;0.80;;;;;;;14.47;66.55;99720.72;5075430;28;20052;-72
2023/10/22 01:00:48;;;;;;;2.40;0.95;;;;;;;14.48;67.04;99735.03;5081410;28;20045;-73
2023/10/22 01:03:18;;;;;;;1.73;0.80;;;;;;;14.46;66.58;99724.50;5079370;28;20061;-73
2023/10/22 01:05:46;;;;;;;3.83;1.42;;;;;;;14.47;66.79;99725.31;5073976;28;20049;-72
2023/10/22 01:08:14;;;;;;;1.50;0.82;;;;;;;14.45;66.91;99725.59;5075634;28;20104;-72
2023/10/22 01:10:42;;;;;;;2.38;0.80;;;;;;;14.46;66.82;99729.09;5081459;28;20070;-72
2023/10/22 01:13:10;;;;;;;2.20;1.20;;;;;;;14.45;66.77;99730.19;5078208;28;20041;-72
2023/10/22 01:15:39;;;;;;;3.78;0.90;;;;;;;14.44;67.03;99740.19;5079143;28;20345;-72
2023/10/22 01:18:08;;;;;;;3.03;1.33;;;;;;;14.32;66.90;99718.03;5079683;28;20049;-72
2023/10/22 01:20:36;;;;;;;2.22;0.90;;;;;;;14.44;67.17;99742.91;5082190;28;20049;-73
2023/10/22 01:23:03;;;;;;;2.30;0.80;;;;;;;14.44;66.79;99740.19;5080554;28;20048;-72
2023/10/22 01:25:33;;;;;;;1.90;0.80;;;;;;;14.43;67.05;99732.34;5074818;28;20499;-72
2023/10/22 01:28:00;;;;;;;2.13;1.00;;;;;;;14.43;66.97;99743.97;5074414;28;20057;-72
2023/10/22 01:30:28;;;;;;;5.35;1.25;;;;;;;14.43;67.20;99743.97;5077659;28;20052;-72
2023/10/22 01:32:57;;;;;;;1.92;0.95;;;;;;;14.43;66.91;99751.28;5078247;28;20072;-72
2023/10/22 01:35:24;;;;;;;3.85;0.80;;;;;;;14.41;67.05;99756.94;5079505;28;20152;-72
2023/10/22 01:37:52;;;;;;;2.40;0.70;;;;;;;14.41;67.00;99756.13;5077927;28;20044;-72
2023/10/22 01:40:20;;;;;;;5.15;1.05;;;;;;;14.41;67.19;99775.03;5078559;28;20053;-72
2023/10/22 01:42:50;;;;;;;2.70;0.90;;;;;;;14.37;67.17;99763.97;5073078;28;20144;-72
2023/10/22 01:45:18;;;;;;;1.23;0.77;;;;;;;14.38;67.28;99771.00;5080962;28;20047;-72
2023/10/22 01:47:46;;;;;;;2.30;0.82;;;;;;;14.39;67.10;99779.91;5079021;28;20713;-72
2023/10/22 01:50:14;;;;;;;1.92;0.80;;;;;;;14.38;67.23;99781.00;5076299;28;20052;-72
2023/10/22 01:52:42;;;;;;;3.38;0.90;;;;;;;14.37;67.03;99785.59;5075787;28;20457;-72
2023/10/22 01:55:09;;;;;;;0.98;0.70;;;;;;;14.37;67.36;99793.69;5080937;28;20037;-73
2023/10/22 01:57:37;;;;;;;3.08;0.73;;;;;;;14.36;67.29;99788.56;5078924;28;20088;-72
2023/10/22 02:00:10;;;;;;;1.50;0.60;;;;;;;14.44;67.32;99791.56;5082981;28;20106;-72
2023/10/22 02:02:39;;;;;;;3.38;0.88;;;;;;;14.37;67.00;99790.19;5079575;28;20044;-72
2023/10/22 02:05:08;;;;;;;1.63;0.50;;;;;;;14.38;67.10;99803.44;5080110;28;20236;-73
2023/10/22 02:07:38;;;;;;;2.35;0.95;;;;;;;14.40;67.06;99813.97;5078117;28;20452;-72
2023/10/22 02:10:08;;;;;;;3.85;0.90;;;;;;;14.38;66.91;99816.94;5072529;28;20055;-73
2023/10/22 02:12:36;;;;;;;2.53;0.90;;;;;;;14.38;67.41;99821.53;5077744;28;20045;-72
2023/10/22 02:15:07;;;;;;;3.90;0.90;;;;;;;14.36;67.14;99829.09;5074569;28;20478;-72
2023/10/22 02:17:36;;;;;;;1.48;0.57;;;;;;;14.38;67.47;99827.75;5077330;28;20048;-72
2023/10/22 02:20:08;;;;;;;3.08;0.90;;;;;;;14.31;67.41;99816.41;5075356;28;20053;-72
2023/10/22 02:22:37;;;;;;;3.70;0.90;;;;;;;14.36;67.24;99835.31;5077958;28;20044;-72
2023/10/22 02:25:06;;;;;;;2.95;0.60;;;;;;;14.35;67.47;99836.41;5080356;28;20045;-72
2023/10/22 02:27:35;;;;;;;1.80;0.80;;;;;;;14.21;67.40;99817.22;5075078;28;20132;-72
2023/10/22 02:30:03;;;;;;;2.00;0.90;;;;;;;14.28;67.59;99839.38;5078597;28;20044;-72
2023/10/22 02:32:32;;;;;;;2.72;0.80;;;;;;;14.30;67.82;99839.13;5073782;28;20048;-72
2023/10/22 02:35:00;;;;;;;2.08;0.80;;;;;;;14.29;67.62;99837.50;5079707;28;20095;-72
2023/10/22 02:37:28;;;;;;;2.50;0.80;;;;;;;14.35;67.90;99863.44;5079556;28;20048;-72
2023/10/22 02:39:56;;;;;;;1.70;0.80;;;;;;;14.33;67.86;99866.41;5077307;28;20051;-72
2023/10/22 02:42:24;;;;;;;1.50;0.93;;;;;;;14.36;67.95;99875.88;5080762;28;20086;-72
2023/10/22 02:44:51;;;;;;;2.45;0.70;;;;;;;14.33;67.62;99873.72;5078780;28;20052;-72
2023/10/22 02:47:19;;;;;;;2.72;0.63;;;;;;;14.34;67.64;99878.03;5083169;28;20119;-73
2023/10/22 02:49:48;;;;;;;1.10;0.77;;;;;;;14.26;68.01;99865.06;5078489;28;20048;-72
2023/10/22 02:52:16;;;;;;;3.35;0.80;;;;;;;14.34;67.78;99886.94;5077304;28;20044;-72
2023/10/22 02:54:44;;;;;;;2.25;0.88;;;;;;;14.35;67.98;99895.88;5072739;28;20044;-72
2023/10/22 02:57:12;;;;;;;1.95;0.73;;;;;;;14.30;67.93;99890.47;5078758;28;20040;-72
2023/10/22 02:59:40;;;;;;;3.28;0.75;;;;;;;14.34;68.00;99907.75;5075256;28;20051;-72
2023/10/22 03:02:07;;;;;;;1.67;0.90;;;;;;;14.36;67.83;99915.59;5073235;28;20068;-72
2023/10/22 03:04:35;;;;;;;1.50;0.85;;;;;;;14.35;67.69;99917.50;5078527;28;20036;-73
2023/10/22 03:07:05;;;;;;;1.38;0.68;;;;;;;14.34;67.84;99911.28;5074979;28;20048;-72
2023/10/22 03:09:33;;;;;;;2.13;0.90;;;;;;;14.36;67.83;99918.31;5076293;28;20045;-72
2023/10/22 03:12:01;;;;;;;1.92;0.80;;;;;;;14.23;68.01;99900.72;5071729;28;20122;-72
2023/10/22 03:14:29;;;;;;;1.95;0.90;;;;;;;14.30;67.98;99931.00;5077584;28;20086;-72
2023/10/22 03:16:57;;;;;;;2.63;1.00;;;;;;;14.33;68.07;99939.41;5074698;28;20049;-72
2023/10/22 03:19:25;;;;;;;5.95;1.02;;;;;;;14.22;68.09;99923.44;5076852;28;20056;-72
2023/10/22 03:21:53;;;;;;;1.90;0.73;;;;;;;14.32;67.86;99954.00;5077017;28;20048;-72
2023/10/22 03:24:22;;;;;;;2.28;1.02;;;;;;;14.32;68.07;99959.41;5078852;28;20062;-72
2023/10/22 03:26:50;;;;;;;4.03;1.30;;;;;;;14.31;67.88;99963.19;5079188;28;20095;-72
2023/10/22 03:29:18;;;;;;;3.80;1.42;;;;;;;14.17;67.94;99951.25;5075319;28;20123;-72
2023/10/22 03:31:46;;;;;;;1.88;0.80;;;;;;;14.30;67.82;99982.38;5073725;28;20044;-72
2023/10/22 03:34:14;;;;;;;2.67;1.10;;;;;;;14.29;67.71;99989.66;5079124;28;20040;-72
2023/10/22 03:36:41;;;;;;;2.42;1.25;;;;;;;14.29;68.11;99991.56;5079966;28;20070;-71
2023/10/22 03:39:09;;;;;;;2.85;0.98;;;;;;;14.29;68.04;99994.25;5074270;28;20074;-72
2023/10/22 03:41:39;;;;;;;2.75;1.10;;;;;;;14.25;67.86;99990.47;5071716;28;20048;-72
2023/10/22 03:44:06;;;;;;;4.13;1.08;;;;;;;14.28;67.65;99996.16;5068152;28;20110;-71
2023/10/22 03:46:34;;;;;;;4.28;1.10;;;;;;;14.21;67.55;99997.47;5074124;28;20120;-71
2023/10/22 03:49:02;;;;;;;2.60;0.98;;;;;;;14.12;67.83;99994.47;5075519;28;20059;-70
2023/10/22 03:51:30;;;;;;;3.63;1.10;;;;;;;14.26;67.53;100022.63;5079081;28;20064;-71
2023/10/22 03:53:59;;;;;;;10.23;1.42;;;;;;;14.26;67.59;100027.22;5075109;28;20049;-70
2023/10/22 03:56:27;;;;;;;2.25;1.17;;;;;;;14.24;67.44;100032.06;5077591;28;20100;-70
2023/10/22 03:58:56;;;;;;;3.00;0.98;;;;;;;14.24;67.48;100035.59;5076539;28;20045;-71
2023/10/22 04:01:24;;;;;;;1.63;0.85;;;;;;;14.22;67.57;100035.03;5078909;28;20036;-70
2023/10/22 04:03:51;;;;;;;3.13;1.17;;;;;;;14.21;67.12;100038.81;5079356;28;20083;-71
2023/10/22 04:06:19;;;;;;;6.05;1.15;;;;;;;14.20;67.40;100047.19;5077206;28;20067;-70
2023/10/22 04:08:47;;;;;;;4.00;1.52;;;;;;;14.20;67.38;100049.91;5070115;28;20105;-70
2023/10/22 04:11:19;;;;;;;3.70;1.27;;;;;;;14.18;67.28;100052.88;5078081;28;20056;-71
2023/10/22 04:13:47;;;;;;;2.55;1.35;;;;;;;14.18;67.28;100065.56;5080202;28;20121;-72
2023/10/22 04:16:17;;;;;;;2.85;1.20;;;;;;;14.17;66.96;100062.06;5071539;28;20067;-71
2023/10/22 04:18:45;;;;;;;4.38;1.70;;;;;;;14.18;67.51;100070.97;5077765;28;20045;-71
2023/10/22 04:21:14;;;;;;;5.40;1.40;;;;;;;14.17;67.43;100067.47;5073241;28;20080;-71
2023/10/22 04:23:42;;;;;;;3.33;1.40;;;;;;;14.16;67.29;100073.13;5072609;28;20071;-71
2023/10/22 04:26:13;;;;;;;6.82;1.52;;;;;;;14.04;67.19;100062.53;5078011;28;20044;-72
2023/10/22 04:28:42;;;;;;;2.75;1.30;;;;;;;14.15;67.54;100085.00;5072591;28;20441;-72
2023/10/22 04:31:10;;;;;;;1.38;1.02;;;;;;;14.12;67.21;100086.34;5077162;28;20048;-72
2023/10/22 04:33:39;;;;;;;2.70;1.40;;;;;;;14.11;67.24;100082.03;5077218;28;20052;-71
2023/10/22 04:36:15;;;;;;;3.88;1.42;;;;;;;14.09;67.25;100086.88;5072602;28;20171;-71
2023/10/22 04:38:43;;;;;;;5.90;1.88;;;;;;;14.13;67.11;100104.19;5075374;28;20133;-71
2023/10/22 04:41:11;;;;;;;3.72;1.33;;;;;;;14.12;67.35;100104.47;5076446;28;20055;-71
2023/10/22 04:43:39;;;;;;;3.70;1.20;;;;;;;14.11;67.43;100111.75;5077273;28;20064;-71
2023/10/22 04:46:07;;;;;;;1.65;0.90;;;;;;;14.08;67.27;100111.47;5072498;28;20040;-71
2023/10/22 04:48:35;;;;;;;3.90;1.38;;;;;;;14.11;67.28;100113.63;5072128;28;20040;-71
2023/10/22 04:51:09;;;;;;;2.85;1.42;;;;;;;14.10;67.21;100125.53;5075262;28;20212;-72
2023/10/22 04:53:37;;;;;;;5.60;1.50;;;;;;;14.08;67.25;100120.38;5069897;28;20053;-71
2023/10/22 04:56:06;;;;;;;2.10;1.20;;;;;;;14.08;67.10;100116.88;5069302;28;20053;-71
2023/10/22 04:58:35;;;;;;;3.53;1.30;;;;;;;14.08;67.20;100128.47;5077911;28;20078;-71
2023/10/22 05:01:03;;;;;;;2.75;0.98;;;;;;;14.08;67.33;100130.38;5077425;28;20098;-72
2023/10/22 05:03:30;;;;;;;3.95;1.83;;;;;;;14.07;67.30;100139.56;5070854;28;20095;-72
2023/10/22 05:06:04;;;;;;;4.80;1.13;;;;;;;14.04;67.38;100131.97;4721890;28;9999712;-71
2023/10/22 05:08:38;;;;;;;1.92;1.13;;;;;;;14.06;66.99;100144.16;5076799;28;20298;-72
2023/10/22 05:11:06;;;;;;;3.17;1.17;;;;;;;14.05;67.20;100147.94;5073359;28;20043;-74
2023/10/22 05:13:34;;;;;;;3.80;1.25;;;;;;;14.02;67.07;100159.25;5072073;28;20220;-74
2023/10/22 05:16:02;;;;;;;2.88;0.98;;;;;;;14.05;67.10;100166.03;5076322;28;20044;-74
2023/10/22 05:18:30;;;;;;;3.20;1.20;;;;;;;14.02;67.27;100165.47;5075749;28;20048;-73
2023/10/22 05:21:01;;;;;;;3.53;1.17;;;;;;;14.04;67.07;100167.09;5077701;28;20575;-73
2023/10/22 05:23:30;;;;;;;1.90;0.98;;;;;;;14.03;67.17;100166.28;5077261;28;20139;-77
2023/10/22 05:26:05;;;;;;;1.27;0.90;;;;;;;13.98;67.12;100163.56;5079250;28;20044;-74
2023/10/22 05:28:33;;;;;;;3.25;0.90;;;;;;;14.03;66.89;100174.38;5076661;28;20057;-73
2023/10/22 05:31:00;;;;;;;2.85;0.95;;;;;;;14.00;66.84;100186.53;5075168;28;20044;-71
2023/10/22 05:33:28;;;;;;;2.30;1.05;;;;;;;14.01;67.02;100180.06;5073393;28;20048;-71
2023/10/22 05:35:57;;;;;;;2.70;1.55;;;;;;;14.01;66.84;100190.03;5073536;28;20044;-71
2023/10/22 05:38:24;;;;;;;2.17;0.98;;;;;;;14.00;66.68;100189.22;5074541;28;20099;-70
2023/10/22 05:40:52;;;;;;;1.88;0.90;;;;;;;13.97;66.79;100183.53;5076472;28;20102;-67
2023/10/22 05:43:21;;;;;;;3.22;1.23;;;;;;;13.98;67.10;100199.50;5073445;28;20098;-70
2023/10/22 05:45:57;;;;;;;5.25;1.90;;;;;;;13.98;66.80;100204.06;5065732;28;20044;-68
2023/10/22 05:48:25;;;;;;;2.78;1.45;;;;;;;13.97;67.03;100211.38;5075391;28;20272;-67
2023/10/22 05:50:53;;;;;;;2.22;1.30;;;;;;;13.92;67.14;100205.94;5074054;28;20040;-69
2023/10/22 05:53:21;;;;;;;1.77;0.98;;;;;;;13.95;66.84;100218.91;5072220;28;20131;-69
2023/10/22 05:55:56;;;;;;;3.00;1.10;;;;;;;13.75;67.12;100213.41;5076256;28;20614;-69
2023/10/22 05:58:25;;;;;;;3.08;1.00;;;;;;;13.71;66.86;100233.06;5074704;28;20052;-66
2023/10/22 06:00:54;;;;;;;3.63;1.45;;;;;;;13.73;66.89;100236.31;5078260;28;20491;-64
2023/10/22 06:03:22;;;;;;;2.63;1.40;;;;;;;13.75;67.18;100240.41;5079734;28;20076;-65
2023/10/22 06:05:50;;;;;;;2.60;1.33;;;;;;;13.77;67.11;100249.06;5079508;28;20825;-64
2023/10/22 06:08:17;;;;;;;2.13;1.15;;;;;;;13.80;67.00;100255.84;5075342;28;20086;-67
2023/10/22 06:10:46;;;;;;;4.63;1.10;;;;;;;13.81;67.04;100250.16;5072711;28;20056;-62
2023/10/22 06:13:14;;;;;;;3.00;0.90;;;;;;;13.82;66.89;100262.59;5069400;28;20172;-67
2023/10/22 06:15:44;;;;;;;2.20;0.93;;;;;;;13.74;67.25;100267.66;5069857;28;20061;-66
2023/10/22 06:18:12;;;;;;;3.60;0.80;;;;;;;13.74;67.39;100267.66;5065991;28;20045;-66
2023/10/22 06:20:40;;;;;;;4.05;1.05;;;;;;;13.75;67.01;100274.69;5074325;28;20048;-66
2023/10/22 06:23:09;;;;;;;5.07;1.13;;;;;;;13.75;67.32;100282.78;5077082;28;20059;-66
2023/10/22 06:25:36;;;;;;;4.95;1.45;;;;;;;13.75;67.41;100286.31;5081414;28;20040;-66
2023/10/22 06:28:05;;;;;;;4.60;1.40;;;;;;;13.75;67.01;100293.59;5073002;28;20040;-66
2023/10/22 06:30:34;;;;;;;3.70;1.02;;;;;;;13.76;67.18;100297.94;5075104;28;20040;-66
2023/10/22 06:33:03;;;;;;;3.13;0.85;;;;;;;13.77;67.27;100307.66;5080255;28;20048;-66
2023/10/22 06:35:32;;;;;;;2.03;0.90;;;;;;;13.72;66.95;100308.44;5081613;28;20093;-66
2023/10/22 06:37:59;;;;;;;7.07;2.03;;;;;;;13.76;67.04;100308.72;5078401;28;20057;-66
2023/10/22 06:40:27;;;;;;;2.30;0.80;;;;;;;13.76;66.89;100322.25;5078790;28;20053;-67
2023/10/22 06:42:56;;;;;;;1.85;1.08;;;;;;;13.74;66.96;100318.97;5074316;28;20074;-66
2023/10/22 06:45:23;;;;;;;2.05;1.02;;;;;;;13.75;67.22;100326.81;5075183;28;20060;-66
2023/10/22 06:47:51;;;;;;;4.13;0.93;;;;;;;13.76;66.94;100333.84;5070914;28;20080;-66
2023/10/22 06:50:20;;;;;;;3.85;1.10;;;;;;;13.75;66.94;100331.41;5076633;28;20052;-66
2023/10/22 06:52:48;;;;;;;3.05;1.23;;;;;;;13.72;67.14;100326.53;5071369;28;20163;-66
2023/10/22 06:55:16;;;;;;;1.92;1.08;;;;;;;13.74;67.17;100332.47;5077591;28;20048;-66
2023/10/22 06:57:46;;;;;;;3.60;1.13;;;;;;;13.75;67.26;100334.94;5074459;28;20037;-66
2023/10/22 07:00:14;;;;;;;4.45;1.17;;;;;;;13.75;66.93;100348.44;5072969;28;20316;-66
2023/10/22 07:02:43;;;;;;;2.15;0.98;;;;;;;13.75;67.25;100347.63;5081023;28;20048;-66
2023/10/22 07:05:11;;;;;;;5.28;0.90;;;;;;;13.74;67.17;100348.69;5073110;28;20151;-66
2023/10/22 07:07:42;;;;;;;2.88;1.30;;;;;;;13.72;67.20;100348.94;5072029;28;20044;-66
2023/10/22 07:10:11;;;;;;;2.05;0.93;;;;;;;13.75;67.23;100355.72;5073156;28;20048;-66
2023/10/22 07:12:38;;;;;;;2.95;1.17;;;;;;;13.63;67.15;100345.06;5068669;28;20421;-66
2023/10/22 07:15:09;;;;;;;1.23;0.77;;;;;;;13.75;66.90;100361.13;5073663;28;20049;-66
2023/10/22 07:17:37;;;;;;;1.90;0.95;;;;;;;13.74;66.94;100373.81;5073399;28;20477;-67
2023/10/22 07:20:06;;;;;;;2.78;1.10;;;;;;;13.71;66.94;100370.78;5067959;28;20048;-66
2023/10/22 07:22:34;;;;;;;4.25;1.02;;;;;;;13.73;67.48;100390.25;5075178;28;20041;-66
2023/10/22 07:25:03;;;;;;;2.22;0.95;;;;;;;13.73;67.11;100391.06;5069707;28;20083;-66
2023/10/22 07:27:31;;;;;;;1.55;0.77;;;;;;;13.74;67.10;100403.50;5074449;28;20094;-66
2023/10/22 07:29:59;;;;;;;2.97;0.80;;;;;;;13.62;67.10;100376.66;5073249;28;20056;-66
2023/10/22 07:32:26;;;;;;;4.57;1.17;;;;;;;13.76;67.35;100411.38;5076175;28;20044;-66
2023/10/22 07:34:54;;;;;;;7.45;1.33;;;;;;;13.77;67.30;100407.59;5068253;28;20144;-66
2023/10/22 07:37:22;;;;;;;2.15;1.08;;;;;;;13.78;66.97;100417.31;5070400;28;20129;-66
2023/10/22 07:39:50;;;;;;;1.75;0.95;;;;;;;13.64;67.26;100398.81;5074709;28;20052;-66
2023/10/22 07:42:19;;;;;;;2.70;1.20;;;;;;;13.78;67.15;100428.13;5076084;28;20385;-66
2023/10/22 07:44:51;;;;;;;1.58;1.00;;;;;;;13.65;67.41;100410.44;5076776;28;20052;-66
2023/10/22 07:47:18;;;;;;;8.85;1.20;;;;;;;13.79;67.42;100435.16;5078680;28;20040;-65
2023/10/22 07:49:51;;;;;;;2.08;1.00;;;;;;;13.79;67.07;100437.88;5078244;28;20048;-65
2023/10/22 07:52:19;;;;;;;1.88;1.42;;;;;;;13.76;67.80;100443.78;5076825;28;20090;-64
2023/10/22 07:54:49;;;;;;;2.08;1.00;;;;;;;13.73;68.19;100438.88;5073788;28;20040;-67
2023/10/22 07:57:18;;;;;;;3.47;1.63;;;;;;;13.72;68.47;100438.06;5081157;28;20052;-68
2023/10/22 07:59:46;;;;;;;5.43;1.55;;;;;;;13.71;68.54;100436.44;5074482;28;20076;-67
2023/10/22 08:02:14;;;;;;;3.08;1.20;;;;;;;13.66;68.24;100433.66;5076980;28;20052;-67
2023/10/22 08:04:42;;;;;;;4.05;1.33;;;;;;;13.73;68.36;100438.88;5081515;28;20040;-67
2023/10/22 08:07:10;;;;;;;4.63;1.55;;;;;;;13.74;68.17;100448.59;5080485;28;20045;-67
2023/10/22 08:09:38;;;;;;;3.45;1.50;;;;;;;13.74;68.11;100438.63;5074707;28;20044;-66
2023/10/22 08:12:07;;;;;;;4.20;1.35;;;;;;;13.75;67.97;100450.25;5079582;28;20076;-67
2023/10/22 08:14:36;;;;;;;4.05;2.03;;;;;;;13.75;68.15;100442.94;5076696;28;20051;-67
2023/10/22 08:17:04;;;;;;;6.32;1.55;;;;;;;13.76;67.98;100457.28;5070761;28;20037;-67
2023/10/22 08:19:32;;;;;;;3.22;1.38;;;;;;;13.77;68.10;100459.72;5068875;28;20079;-68
2023/10/22 08:22:00;;;;;;;4.43;0.98;;;;;;;13.76;68.01;100463.50;5080575;28;20106;-67
2023/10/22 08:24:29;;;;;;;1.85;1.08;;;;;;;13.77;68.28;100465.13;5080694;28;20044;-67
2023/10/22 08:26:59;;;;;;;4.30;1.15;;;;;;;13.77;68.25;100459.72;5071933;28;20049;-67
2023/10/22 08:29:27;;;;;;;2.65;1.27;;;;;;;13.81;68.38;100465.44;5070585;28;20148;-68
2023/10/22 08:31:56;;;;;;;2.58;1.55;;;;;;;13.81;68.04;100474.34;5072971;28;20127;-67
2023/10/22 08:34:24;;;;;;;3.05;1.65;;;;;;;13.78;68.22;100471.34;5077782;28;20114;-67
2023/10/22 08:36:52;;;;;;;2.50;1.35;;;;;;;13.82;68.25;100478.69;5071935;28;20063;-66
2023/10/22 08:39:20;;;;;;;3.17;1.50;;;;;;;13.82;68.12;100480.56;5076926;28;20041;-66
2023/10/22 08:42:00;;;;;;;3.03;1.10;;;;;;;13.94;67.86;100479.34;5068235;28;20048;-66
2023/10/22 08:44:29;;;;;;;2.85;1.70;;;;;;;13.90;68.30;100488.19;5070649;28;20044;-66
2023/10/22 08:46:58;;;;;;;4.35;1.05;;;;;;;13.87;68.45;100489.53;5073291;28;20049;-68
2023/10/22 08:49:28;;;;;;;4.10;1.38;;;;;;;13.77;68.25;100473.22;5082610;28;20041;-68
2023/10/22 08:51:56;;;;;;;0.80;0.70;;;;;;;13.89;68.41;100500.09;5077203;28;20049;-68
2023/10/22 08:54:26;;;;;;;2.97;1.48;;;;;;;13.88;68.26;100501.97;5080756;28;20529;-68
2023/10/22 08:56:54;;;;;;;1.13;0.90;;;;;;;13.89;68.55;100502.78;5078854;28;20187;-68
2023/10/22 08:59:23;;;;;;;5.15;1.27;;;;;;;13.84;68.22;100487.34;5083149;28;20131;-67
2023/10/22 09:01:51;;;;;;;3.22;1.73;;;;;;;13.92;68.26;100502.28;5076070;28;20105;-67
2023/10/22 09:04:21;;;;;;;2.60;1.15;;;;;;;13.91;68.43;100504.16;5074575;28;20095;-67
2023/10/22 09:06:53;;;;;;;2.75;1.10;;;;;;;13.92;68.43;100508.50;5081085;28;20041;-66
2023/10/22 09:09:33;;;;;;;1.42;0.90;;;;;;;13.94;68.72;100513.66;5075769;28;20048;-67
2023/10/22 09:12:03;;;;;;;5.25;1.20;;;;;;;13.93;68.25;100514.72;5076688;28;20041;-67
2023/10/22 09:14:31;;;;;;;2.13;1.00;;;;;;;13.94;68.63;100510.94;5081162;28;20074;-67
2023/10/22 09:17:14;;;;;;;3.70;1.25;;;;;;;13.94;68.58;100514.47;5075400;28;20045;-67
2023/10/22 09:19:47;;;;;;;2.25;1.08;;;;;;;13.95;68.69;100532.31;5075720;28;20108;-67
2023/10/22 09:22:22;;;;;;;2.53;1.20;;;;;;;13.95;69.08;100529.59;5078881;28;20056;-67
2023/10/22 09:24:52;;;;;;;4.45;1.10;;;;;;;13.93;69.21;100534.44;5072960;28;20474;-67
2023/10/22 09:27:24;;;;;;;8.20;1.60;;;;;;;13.94;69.27;100537.97;5082856;28;20053;-67
2023/10/22 09:29:53;;;;;;;3.50;1.27;;;;;;;13.93;69.06;100531.75;5079292;28;20477;-67
2023/10/22 09:32:21;;;;;;;1.98;1.20;;;;;;;13.93;69.18;100533.63;5081139;28;20045;-66
2023/10/22 09:34:51;;;;;;;2.50;1.02;;;;;;;13.95;69.02;100542.28;5075618;28;20092;-67
2023/10/22 09:37:18;;;;;;;2.55;1.00;;;;;;;13.95;69.12;100550.41;5078031;28;20079;-66
2023/10/22 09:39:46;;;;;;;5.35;1.10;;;;;;;13.95;69.24;100551.22;5079519;28;20177;-67
2023/10/22 09:42:15;;;;;;;3.13;1.35;;;;;;;13.95;69.22;100556.63;5074897;28;20044;-65
2023/10/22 09:44:45;;;;;;;2.97;1.20;;;;;;;13.96;69.14;100560.97;5078368;28;20076;-65
2023/10/22 09:47:21;;;;;;;4.63;1.52;;;;;;;13.96;69.62;100558.25;5074072;28;20044;-66
2023/10/22 09:49:52;;;;;;;7.53;1.60;;;;;;;13.97;69.38;100559.06;5077435;28;20094;-64
2023/10/22 09:52:23;;;;;;;4.28;1.23;;;;;;;13.99;69.32;100565.03;5073727;28;20040;-66
2023/10/22 09:54:54;;;;;;;2.70;1.00;;;;;;;13.99;69.35;100565.88;5074236;28;20105;-64
2023/10/22 09:57:28;;;;;;;2.45;1.42;;;;;;;13.99;69.52;100568.56;5079512;28;20052;-64
2023/10/22 09:59:58;;;;;;;1.05;0.93;;;;;;;14.00;69.39;100577.47;5084340;28;20147;-65
2023/10/22 10:02:27;;;;;;;2.47;1.20;;;;;;;14.00;69.29;100570.19;5082329;28;20047;-65
2023/10/22 10:04:58;;;;;;;1.80;1.00;;;;;;;14.02;69.40;100583.47;5083151;28;20044;-65
2023/10/22 10:07:26;;;;;;;3.10;1.30;;;;;;;14.03;69.37;100585.09;5082503;28;20044;-65
2023/10/22 10:09:55;;;;;;;2.53;0.90;;;;;;;14.02;69.38;100578.88;5083032;28;20115;-64
2023/10/22 10:12:27;;;;;;;3.13;1.13;;;;;;;14.03;69.29;100576.97;5080553;28;20048;-64
2023/10/22 10:14:55;;;;;;;1.92;1.52;;;;;;;14.03;69.38;100590.50;5077907;28;20056;-66
2023/10/22 10:17:23;;;;;;;2.42;1.08;;;;;;;14.05;69.76;100590.25;5074830;28;20083;-65
2023/10/22 10:19:51;;;;;;;1.55;1.10;;;;;;;14.05;69.67;100591.06;5082202;28;20041;-65
2023/10/22 10:22:39;;;;;;;4.13;1.45;;;;;;;14.06;69.53;100589.19;5078872;28;20114;-64
2023/10/22 10:25:29;;;;;;;1.40;0.85;;;;;;;14.06;69.51;100586.47;5077941;28;20099;-64
2023/10/22 10:28:02;;;;;;;5.15;1.27;;;;;;;14.06;69.60;100599.97;5079567;28;20063;-65
2023/10/22 10:30:30;;;;;;;10.38;1.65;;;;;;;14.07;69.58;100607.03;5076429;28;20052;-66
2023/10/22 10:32:58;;;;;;;3.92;1.30;;;;;;;14.06;69.66;100606.22;5079921;28;20041;-64
2023/10/22 10:35:46;;;;;;;2.33;1.50;;;;;;;14.02;69.96;100602.38;5078736;28;20139;-66
2023/10/22 10:38:28;;;;;;;3.13;1.20;;;;;;;14.00;70.01;100593.69;5074212;28;20059;-67
2023/10/22 10:40:56;;;;;;;1.65;1.02;;;;;;;14.09;69.79;100613.00;5077360;28;20086;-67
2023/10/22 10:44:02;;;;;;;2.72;1.17;;;;;;;14.09;69.96;100608.41;5082770;28;20537;-68
2023/10/22 10:46:31;;;;;;;2.65;1.25;;;;;;;14.09;70.03;100615.69;5080743;28;20044;-66
2023/10/22 10:48:59;;;;;;;2.65;1.08;;;;;;;14.10;70.12;100611.94;4727144;28;9999984;-67
2023/10/22 10:51:28;;;;;;;3.47;1.10;;;;;;;14.10;70.15;100611.94;5071348;28;20052;-67
2023/10/22 10:54:21;;;;;;;2.97;1.20;;;;;;;14.10;70.31;100620.03;5075327;28;20049;-66
2023/10/22 10:56:54;;;;;;;2.95;1.58;;;;;;;14.11;70.67;100610.84;5074041;28;20129;-66
2023/10/22 10:59:34;;;;;;;2.33;1.20;;;;;;;14.09;70.44;100600.31;5074921;28;20090;-66
2023/10/22 11:02:07;;;;;;;7.88;1.73;;;;;;;14.10;70.83;100609.22;5071724;28;20301;-66
2023/10/22 11:04:37;;;;;;;6.40;1.58;;;;;;;14.12;70.84;100601.69;5064224;28;20083;-67
2023/10/22 11:07:06;;;;;;;6.78;2.03;;;;;;;14.11;70.87;100608.97;5071809;28;20052;-65
2023/10/22 11:09:54;;;;;;;3.13;1.30;;;;;;;14.12;70.74;100602.50;5071129;28;20079;-66
2023/10/22 11:12:24;;;;;;;3.45;1.60;;;;;;;14.12;70.87;100604.38;5080560;28;20047;-65
2023/10/22 11:14:56;;;;;;;2.42;1.20;;;;;;;14.13;70.75;100614.94;5083263;28;20167;-66
2023/10/22 11:17:25;;;;;;;4.45;1.83;;;;;;;14.02;71.04;100592.38;5076200;28;20115;-65
2023/10/22 11:19:53;;;;;;;3.33;1.30;;;;;;;14.11;71.00;100608.16;5072883;28;20049;-65
2023/10/22 11:22:21;;;;;;;2.55;1.30;;;;;;;14.15;71.06;100620.91;5080678;28;20068;-66
2023/10/22 11:24:51;;;;;;;2.60;1.25;;;;;;;14.15;71.05;100614.69;5068893;28;20053;-67
2023/10/22 11:27:20;;;;;;;3.72;1.15;;;;;;;14.16;71.08;100621.72;5076403;28;20048;-65
2023/10/22 11:29:49;;;;;;;3.08;1.83;;;;;;;14.17;71.23;100626.06;5076199;28;20044;-66
2023/10/22 11:32:18;;;;;;;1.83;1.25;;;;;;;14.17;71.31;100631.47;5074890;28;20095;-66
2023/10/22 11:34:51;;;;;;;4.50;1.90;;;;;;;14.13;72.21;100635.75;5074818;28;20078;-67
2023/10/22 11:37:20;;;;;;;6.45;1.83;;;;;;;14.08;72.19;100627.56;5074299;28;20060;-63